createdAt,value
2023-03-01T00:02:12.179Z,101.38
2023-03-01T00:04:39.750Z,103.43
2023-03-01T00:07:07.291Z,108.18
2023-03-01T00:09:34.802Z,114.10
2023-03-01T00:12:02.249Z,118.95
2023-03-01T00:14:29.865Z,115.78
2023-03-01T00:16:57.394Z,124.40
2023-03-01T00:19:25.035Z,114.07
2023-03-01T00:21:52.515Z,102.22
2023-03-01T00:24:20.082Z,109.88
2023-03-01T00:26:47.831Z,125.95
2023-03-01T00:29:15.293Z,99.60
2023-03-01T00:31:42.766Z,105.10
2023-03-01T00:34:10.976Z,107.57
2023-03-01T00:36:38.983Z,97.38
2023-03-01T00:39:07.301Z,93.35
2023-03-01T00:41:36.044Z,96.32
2023-03-01T00:44:03.667Z,103.50
2023-03-01T00:46:35.462Z,102.50
2023-03-01T00:49:03.435Z,104.18
2023-03-01T00:51:31.041Z,115.97
2023-03-01T00:53:59.305Z,131.02
2023-03-01T00:56:26.730Z,141.57
2023-03-01T00:58:54.236Z,140.82
2023-03-01T01:01:22.755Z,140.23
2023-03-01T01:03:51.126Z,118.88
2023-03-01T01:06:19.521Z,107.55
2023-03-01T01:08:46.996Z,92.38
2023-03-01T01:11:14.552Z,77.78
2023-03-01T01:13:42.055Z,85.35
2023-03-01T01:16:09.855Z,72.30
2023-03-01T01:18:37.458Z,71.63
2023-03-01T01:21:05.983Z,71.53
2023-03-01T01:23:33.525Z,76.65
2023-03-01T01:26:05.371Z,73.97
2023-03-01T01:28:33.142Z,66.22
2023-03-01T01:31:00.685Z,67.35
2023-03-01T01:33:28.350Z,66.80
2023-03-01T01:35:56.042Z,52.70
2023-03-01T01:38:23.595Z,46.78
2023-03-01T01:40:51.475Z,42.15
2023-03-01T01:43:20.204Z,41.47
2023-03-01T01:45:47.750Z,43.10
2023-03-01T01:48:17.349Z,40.10
2023-03-01T01:50:48.900Z,37.10
2023-03-01T01:53:19.632Z,42.25
2023-03-01T01:55:47.895Z,43.38
2023-03-01T01:58:16.272Z,43.85
2023-03-01T02:00:43.727Z,42.45
2023-03-01T02:03:15.327Z,39.47
2023-03-01T02:05:45.379Z,37.47
2023-03-01T02:08:13.402Z,39.45
2023-03-01T02:10:40.976Z,40.95
2023-03-01T02:13:08.599Z,43.05
2023-03-01T02:15:36.536Z,45.60
2023-03-01T02:18:04.339Z,34.13
2023-03-01T02:20:35.663Z,32.88
2023-03-01T02:23:03.121Z,35.35
2023-03-01T02:25:35.918Z,33.35
2023-03-01T02:28:12.292Z,33.55
2023-03-01T02:30:59.681Z,38.33
2023-03-01T02:33:27.814Z,58.10
2023-03-01T02:35:55.511Z,57.28
2023-03-01T02:38:22.960Z,61.13
2023-03-01T02:40:50.944Z,67.13
2023-03-01T02:43:18.362Z,63.92
2023-03-01T02:45:54.900Z,68.22
2023-03-01T02:48:22.374Z,70.93
2023-03-01T02:51:09.273Z,73.22
2023-03-01T02:53:39.502Z,73.82
2023-03-01T02:56:06.882Z,69.50
2023-03-01T02:58:41.718Z,65.60
2023-03-01T03:01:10.356Z,67.78
2023-03-01T03:03:37.958Z,65.65
2023-03-01T03:06:05.478Z,63.42
2023-03-01T03:08:32.903Z,60.60
2023-03-01T03:11:00.319Z,64.05
2023-03-01T03:13:29.641Z,62.10
2023-03-01T03:15:57.511Z,66.28
2023-03-01T03:18:27.018Z,61.30
2023-03-01T03:20:54.524Z,61.63
2023-03-01T03:23:22.566Z,56.42
2023-03-01T03:25:50.877Z,53.15
2023-03-01T03:28:18.320Z,52.42
2023-03-01T03:30:45.888Z,51.58
2023-03-01T03:33:14.028Z,52.45
2023-03-01T03:35:48.652Z,55.05
2023-03-01T03:38:16.808Z,58.97
2023-03-01T03:40:48.171Z,58.67
2023-03-01T03:43:19.900Z,58.83
2023-03-01T03:45:47.709Z,55.92
2023-03-01T03:48:15.229Z,59.33
2023-03-01T03:50:42.752Z,60.08
2023-03-01T03:53:11.214Z,58.28
2023-03-01T03:55:40.478Z,63.00
2023-03-01T03:58:08.908Z,64.28
2023-03-01T04:00:37.414Z,65.93
2023-03-01T04:03:04.914Z,64.32
2023-03-01T04:05:32.558Z,62.95
2023-03-01T04:08:02.665Z,67.20
2023-03-01T04:10:33.132Z,64.35
2023-03-01T04:13:00.704Z,61.35
2023-03-01T04:15:48.560Z,61.90
2023-03-01T04:18:16.346Z,58.17
2023-03-01T04:20:44.014Z,57.55
2023-03-01T04:23:20.313Z,57.00
2023-03-01T04:25:54.955Z,60.90
2023-03-01T04:28:26.365Z,56.97
2023-03-01T04:30:54.714Z,59.25
2023-03-01T04:33:22.178Z,52.35
2023-03-01T04:36:01.615Z,54.97
2023-03-01T04:38:30.597Z,58.58
2023-03-01T04:40:57.972Z,56.67
2023-03-01T04:43:25.358Z,58.13
2023-03-01T04:45:52.847Z,59.20
2023-03-01T04:48:20.328Z,56.67
2023-03-01T04:50:47.769Z,57.92
2023-03-01T04:53:15.244Z,55.55
2023-03-01T04:55:42.654Z,54.70
2023-03-01T04:58:10.297Z,50.40
2023-03-01T05:00:37.743Z,45.10
2023-03-01T05:03:05.221Z,43.88
2023-03-01T05:05:33.752Z,44.20
2023-03-01T05:08:01.870Z,44.03
2023-03-01T05:10:33.186Z,46.92
2023-03-01T05:13:00.683Z,46.15
2023-03-01T05:15:29.003Z,44.65
2023-03-01T05:17:56.933Z,39.75
2023-03-01T05:20:24.339Z,46.58
2023-03-01T05:22:52.215Z,45.83
2023-03-01T05:25:19.697Z,39.85
2023-03-01T05:27:47.339Z,38.88
2023-03-01T05:30:14.950Z,39.70
2023-03-01T05:32:44.164Z,43.78
2023-03-01T05:35:14.320Z,45.15
2023-03-01T05:37:42.720Z,50.42
2023-03-01T05:40:16.658Z,47.47
2023-03-01T05:42:47.512Z,49.20
2023-03-01T05:45:15.146Z,48.83
2023-03-01T05:47:45.838Z,48.20
2023-03-01T05:50:13.250Z,56.17
2023-03-01T05:52:40.792Z,57.22
2023-03-01T05:55:08.459Z,52.30
2023-03-01T05:57:35.879Z,49.63
2023-03-01T06:00:03.710Z,43.25
2023-03-01T06:02:31.123Z,41.58
2023-03-01T06:04:58.736Z,41.60
2023-03-01T06:07:26.257Z,42.15
2023-03-01T06:09:53.680Z,39.83
2023-03-01T06:12:21.101Z,35.72
2023-03-01T06:14:48.976Z,34.60
2023-03-01T06:17:16.393Z,36.60
2023-03-01T06:19:43.918Z,33.78
2023-03-01T06:22:11.304Z,34.78
2023-03-01T06:24:38.789Z,44.55
2023-03-01T06:27:06.238Z,46.67
2023-03-01T06:29:33.664Z,47.05
2023-03-01T06:32:01.081Z,48.58
2023-03-01T06:34:28.948Z,46.53
2023-03-01T06:36:56.345Z,48.72
2023-03-01T06:39:23.752Z,52.92
2023-03-01T06:41:51.520Z,51.13
2023-03-01T06:44:19.536Z,54.70
2023-03-01T06:46:47.371Z,55.00
2023-03-01T06:49:14.869Z,52.22
2023-03-01T06:51:42.319Z,59.58
2023-03-01T06:54:09.839Z,60.20
2023-03-01T06:56:37.305Z,56.72
2023-03-01T06:59:04.772Z,59.85
2023-03-01T07:01:32.545Z,68.93
2023-03-01T07:04:00.113Z,65.95
2023-03-01T07:06:29.764Z,60.28
2023-03-01T07:08:57.538Z,61.33
2023-03-01T07:11:25.139Z,56.60
2023-03-01T07:13:53.106Z,55.55
2023-03-01T07:16:21.710Z,54.42
2023-03-01T07:18:49.226Z,48.05
2023-03-01T07:21:17.657Z,51.83
2023-03-01T07:23:45.174Z,55.95
2023-03-01T07:26:12.615Z,55.33
2023-03-01T07:28:40.586Z,57.20
2023-03-01T07:31:08.251Z,57.42
2023-03-01T07:33:35.845Z,55.35
2023-03-01T07:36:04.608Z,58.30
2023-03-01T07:38:32.393Z,56.43
2023-03-01T07:41:03.208Z,58.58
2023-03-01T07:43:31.071Z,57.90
2023-03-01T07:46:02.256Z,59.05
2023-03-01T07:48:30.219Z,56.90
2023-03-01T07:51:07.168Z,55.47
2023-03-01T07:53:35.445Z,56.40
2023-03-01T07:56:05.569Z,55.67
2023-03-01T07:58:33.109Z,55.38
2023-03-01T08:01:03.561Z,54.53
2023-03-01T08:03:31.236Z,60.78
2023-03-01T08:06:00.301Z,57.55
2023-03-01T08:08:27.975Z,59.90
2023-03-01T08:10:58.045Z,64.68
2023-03-01T08:13:25.555Z,60.95
2023-03-01T08:15:52.998Z,63.47
2023-03-01T08:18:20.554Z,63.25
2023-03-01T08:20:48.346Z,59.15
2023-03-01T08:23:16.013Z,55.10
2023-03-01T08:25:43.728Z,53.15
2023-03-01T08:28:11.320Z,51.83
2023-03-01T08:30:38.797Z,49.53
2023-03-01T08:33:07.076Z,55.70
2023-03-01T08:35:34.582Z,52.72
2023-03-01T08:38:02.031Z,57.67
2023-03-01T08:40:29.526Z,58.28
2023-03-01T08:42:57.047Z,57.03
2023-03-01T08:45:24.632Z,58.28
2023-03-01T08:47:54.503Z,65.03
2023-03-01T08:50:21.969Z,62.50
2023-03-01T08:52:49.480Z,57.38
2023-03-01T08:55:18.340Z,54.58
2023-03-01T08:57:46.012Z,64.72
2023-03-01T09:00:16.136Z,64.40
2023-03-01T09:02:43.847Z,69.97
2023-03-01T09:05:11.350Z,108.85
2023-03-01T09:07:38.731Z,89.47
2023-03-01T09:10:06.561Z,77.45
2023-03-01T09:12:34.135Z,75.57
2023-03-01T09:15:01.807Z,70.97
2023-03-01T09:17:32.289Z,69.03
2023-03-01T09:20:00.849Z,70.35
2023-03-01T09:22:28.580Z,66.45
2023-03-01T09:25:00.606Z,70.93
2023-03-01T09:27:28.146Z,62.42
2023-03-01T09:29:57.472Z,62.15
2023-03-01T09:32:24.848Z,61.97
2023-03-01T09:35:07.572Z,60.55
2023-03-01T09:37:35.452Z,59.53
2023-03-01T09:40:04.651Z,59.40
2023-03-01T09:42:34.135Z,59.75
2023-03-01T09:45:07.006Z,60.15
2023-03-01T09:47:37.826Z,59.65
2023-03-01T09:50:18.014Z,59.65
2023-03-01T09:53:02.536Z,66.47
2023-03-01T09:55:50.422Z,62.42
2023-03-01T09:58:38.199Z,68.40
2023-03-01T10:01:34.055Z,70.10
2023-03-01T10:04:20.444Z,78.47
2023-03-01T10:06:52.496Z,75.63
2023-03-01T10:09:20.030Z,77.03
2023-03-01T10:11:48.104Z,72.45
2023-03-01T10:14:34.056Z,68.35
2023-03-01T10:17:04.104Z,67.75
2023-03-01T10:19:33.129Z,71.25
2023-03-01T10:22:03.739Z,69.05
2023-03-01T10:24:31.352Z,66.68
2023-03-01T10:27:00.284Z,62.00
2023-03-01T10:29:36.870Z,63.15
2023-03-01T10:32:05.087Z,61.20
2023-03-01T10:34:33.853Z,57.67
2023-03-01T10:37:11.997Z,61.77
2023-03-01T10:39:39.469Z,63.88
2023-03-01T10:42:07.520Z,69.35
2023-03-01T10:44:49.124Z,70.57
2023-03-01T10:47:21.601Z,73.03
2023-03-01T10:50:02.538Z,73.90
2023-03-01T10:52:39.962Z,72.60
2023-03-01T10:55:26.561Z,70.82
2023-03-01T10:57:59.100Z,78.45
2023-03-01T11:00:27.143Z,81.47
2023-03-01T11:02:54.935Z,84.28
2023-03-01T11:05:25.119Z,78.35
2023-03-01T11:08:01.979Z,74.88
2023-03-01T11:10:30.466Z,73.65
2023-03-01T11:13:17.321Z,74.30
2023-03-01T11:15:44.963Z,72.55
2023-03-01T11:18:24.969Z,70.57
2023-03-01T11:20:54.409Z,74.75
2023-03-01T11:23:21.986Z,83.97
2023-03-01T11:25:59.289Z,82.38
2023-03-01T11:28:27.381Z,79.50
2023-03-01T11:31:09.037Z,76.20
2023-03-01T11:33:39.064Z,77.53
2023-03-01T11:36:09.648Z,79.38
2023-03-01T11:38:37.345Z,76.53
2023-03-01T11:41:09.483Z,77.13
2023-03-01T11:43:43.812Z,82.40
2023-03-01T11:46:12.821Z,81.53
2023-03-01T11:48:52.712Z,81.50
2023-03-01T11:51:27.214Z,76.00
2023-03-01T11:54:12.395Z,81.55
2023-03-01T11:56:43.949Z,78.03
2023-03-01T11:59:20.448Z,83.30
2023-03-01T12:01:50.947Z,80.22
2023-03-01T12:04:37.086Z,83.07
2023-03-01T12:07:10.571Z,89.80
2023-03-01T12:09:47.521Z,92.68
2023-03-01T12:12:17.933Z,96.63
2023-03-01T12:14:57.806Z,91.90
2023-03-01T12:17:32.542Z,87.05
2023-03-01T12:20:14.741Z,83.13
2023-03-01T12:22:45.235Z,87.82
2023-03-01T12:25:30.142Z,89.93
2023-03-01T12:28:10.149Z,85.90
2023-03-01T12:30:48.904Z,88.00
2023-03-01T12:33:19.428Z,90.40
2023-03-01T12:35:56.158Z,95.10
2023-03-01T12:38:38.970Z,99.10
2023-03-01T12:41:18.537Z,107.70
2023-03-01T12:44:05.784Z,107.38
2023-03-01T12:46:48.628Z,113.68
2023-03-01T12:49:17.109Z,116.43
2023-03-01T12:51:46.281Z,123.82
2023-03-01T12:54:17.019Z,131.30
2023-03-01T12:56:45.493Z,116.32
2023-03-01T12:59:17.855Z,112.85
2023-03-01T13:01:54.037Z,111.88
2023-03-01T13:04:39.816Z,110.75
2023-03-01T13:07:07.402Z,113.00
2023-03-01T13:09:53.498Z,106.25
2023-03-01T13:12:39.764Z,103.70
2023-03-01T13:15:15.516Z,106.28
2023-03-01T13:17:44.107Z,103.22
2023-03-01T13:20:14.295Z,98.33
2023-03-01T13:22:54.273Z,100.72
2023-03-01T13:25:25.704Z,98.97
2023-03-01T13:27:55.098Z,93.97
2023-03-01T13:30:28.576Z,99.90
2023-03-01T13:32:56.251Z,96.63
2023-03-01T13:35:23.875Z,91.75
2023-03-01T13:37:51.281Z,94.88
2023-03-01T13:40:21.901Z,93.40
2023-03-01T13:43:04.173Z,93.25
2023-03-01T13:45:39.227Z,89.75
2023-03-01T13:48:17.208Z,87.90
2023-03-01T13:50:50.018Z,89.25
2023-03-01T13:53:21.270Z,72.10
2023-03-01T13:56:00.031Z,78.03
2023-03-01T13:58:27.540Z,67.45
2023-03-01T14:00:59.046Z,86.72
2023-03-01T14:03:26.751Z,86.75
2023-03-01T14:06:11.556Z,94.10
2023-03-01T14:08:43.684Z,95.25
2023-03-01T14:11:11.328Z,94.35
2023-03-01T14:13:42.781Z,97.55
2023-03-01T14:16:19.312Z,98.32
2023-03-01T14:18:46.838Z,106.07
2023-03-01T14:21:15.085Z,112.82
2023-03-01T14:23:43.231Z,114.95
2023-03-01T14:26:12.982Z,113.97
2023-03-01T14:28:40.664Z,105.75
2023-03-01T14:31:53.259Z,104.57
2023-03-01T14:34:27.824Z,88.88
2023-03-01T14:36:55.660Z,73.45
2023-03-01T14:39:30.361Z,79.13
2023-03-01T14:42:02.564Z,89.45
2023-03-01T14:44:35.121Z,94.57
2023-03-01T14:47:03.414Z,89.50
2023-03-01T14:49:31.677Z,91.43
2023-03-01T14:52:03.143Z,93.38
2023-03-01T14:54:34.169Z,90.85
2023-03-01T14:57:01.962Z,104.88
2023-03-01T14:59:29.504Z,100.57
2023-03-01T15:01:57.838Z,100.55
2023-03-01T15:04:25.774Z,100.15
2023-03-01T15:06:53.728Z,98.10
2023-03-01T15:09:21.262Z,99.80
2023-03-01T15:11:48.683Z,101.10
2023-03-01T15:14:44.091Z,110.47
2023-03-01T15:17:32.699Z,120.03
2023-03-01T15:20:00.257Z,131.93
2023-03-01T15:22:27.959Z,130.73
2023-03-01T15:24:55.694Z,126.18
2023-03-01T15:27:24.152Z,122.93
2023-03-01T15:29:52.591Z,118.88
2023-03-01T15:32:33.429Z,117.35
2023-03-01T15:35:23.253Z,115.20
2023-03-01T15:37:51.057Z,117.05
2023-03-01T15:40:22.123Z,128.55
2023-03-01T15:42:49.760Z,134.75
2023-03-01T15:45:18.245Z,128.35
2023-03-01T15:47:49.596Z,128.50
2023-03-01T15:50:21.775Z,129.23
2023-03-01T15:52:49.192Z,134.52
2023-03-01T15:55:18.048Z,133.18
2023-03-01T15:57:45.738Z,133.63
2023-03-01T16:00:14.586Z,126.00
2023-03-01T16:02:42.557Z,123.80
2023-03-01T16:05:17.183Z,124.68
2023-03-01T16:07:44.575Z,126.75
2023-03-01T16:10:12.068Z,134.60
2023-03-01T16:12:40.305Z,131.52
2023-03-01T16:15:13.369Z,126.05
2023-03-01T16:17:40.952Z,131.68
2023-03-01T16:20:09.942Z,121.95
2023-03-01T16:22:38.744Z,123.28
2023-03-01T16:25:06.802Z,130.27
2023-03-01T16:27:34.177Z,123.22
2023-03-01T16:30:01.681Z,122.18
2023-03-01T16:32:29.110Z,122.40
2023-03-01T16:34:56.780Z,145.85
2023-03-01T16:37:24.239Z,159.23
2023-03-01T16:39:52.265Z,251.68
2023-03-01T16:42:20.177Z,195.40
2023-03-01T16:44:47.668Z,166.27
2023-03-01T16:47:15.125Z,178.50
2023-03-01T16:49:42.621Z,178.43
2023-03-01T16:52:10.035Z,189.70
2023-03-01T16:54:37.427Z,174.40
2023-03-01T16:57:05.823Z,173.32
2023-03-01T16:59:33.365Z,167.23
2023-03-01T17:02:00.922Z,151.63
2023-03-01T17:04:28.879Z,156.90
2023-03-01T17:06:56.308Z,152.82
2023-03-01T17:09:24.046Z,159.25
2023-03-01T17:11:51.665Z,155.20
2023-03-01T17:14:19.065Z,158.70
2023-03-01T17:16:46.484Z,180.05
2023-03-01T17:19:18.759Z,184.02
2023-03-01T17:21:46.404Z,194.10
2023-03-01T17:24:13.980Z,204.02
2023-03-01T17:26:41.844Z,190.07
2023-03-01T17:29:09.722Z,194.60
2023-03-01T17:31:37.322Z,190.30
2023-03-01T17:34:04.955Z,188.60
2023-03-01T17:36:34.757Z,180.48
2023-03-01T17:39:02.686Z,165.30
2023-03-01T17:41:30.415Z,143.98
2023-03-01T17:43:58.111Z,135.43
2023-03-01T17:46:27.111Z,130.13
2023-03-01T17:48:54.681Z,128.55
2023-03-01T17:51:22.456Z,123.85
2023-03-01T17:53:49.902Z,120.88
2023-03-01T17:56:17.365Z,119.82
2023-03-01T17:58:44.902Z,118.75
2023-03-01T18:01:14.197Z,118.05
2023-03-01T18:03:42.108Z,123.38
2023-03-01T18:06:13.360Z,123.72
2023-03-01T18:08:40.854Z,121.78
2023-03-01T18:11:11.292Z,118.43
2023-03-01T18:13:40.004Z,118.55
2023-03-01T18:16:14.523Z,118.80
2023-03-01T18:18:42.208Z,117.75
2023-03-01T18:21:09.755Z,115.95
2023-03-01T18:23:37.337Z,120.13
2023-03-01T18:26:08.062Z,120.28
2023-03-01T18:28:35.690Z,119.15
2023-03-01T18:31:04.123Z,119.47
2023-03-01T18:33:32.045Z,122.25
2023-03-01T18:35:59.792Z,121.75
2023-03-01T18:38:28.878Z,125.38
2023-03-01T18:40:56.517Z,122.25
2023-03-01T18:43:24.232Z,122.78
2023-03-01T18:45:57.225Z,123.65
2023-03-01T18:48:24.914Z,122.72
2023-03-01T18:50:52.759Z,123.72
2023-03-01T18:53:20.251Z,126.30
2023-03-01T18:55:47.693Z,136.38
2023-03-01T18:58:15.437Z,150.43
2023-03-01T19:00:43.301Z,150.07
2023-03-01T19:03:11.391Z,144.10
2023-03-01T19:05:38.852Z,144.55
2023-03-01T19:08:06.472Z,144.73
2023-03-01T19:10:34.037Z,152.10
2023-03-01T19:13:01.867Z,151.05
2023-03-01T19:15:29.433Z,147.98
2023-03-01T19:17:57.626Z,146.43
2023-03-01T19:20:25.120Z,138.90
2023-03-01T19:22:52.633Z,140.65
2023-03-01T19:25:20.393Z,131.88
2023-03-01T19:27:49.224Z,130.48
2023-03-01T19:30:16.787Z,106.63
2023-03-01T19:32:44.457Z,128.10
2023-03-01T19:35:12.259Z,132.55
2023-03-01T19:37:40.103Z,132.60
2023-03-01T19:40:12.060Z,132.43
2023-03-01T19:42:39.656Z,149.43
2023-03-01T19:45:07.493Z,159.57
2023-03-01T19:47:35.805Z,158.80
2023-03-01T19:50:03.326Z,153.82
2023-03-01T19:52:30.832Z,154.05
2023-03-01T19:55:09.075Z,160.07
2023-03-01T19:57:39.954Z,162.00
2023-03-01T20:00:07.807Z,152.15
2023-03-01T20:02:35.368Z,184.07
2023-03-01T20:05:05.942Z,180.75
2023-03-01T20:07:35.913Z,184.57
2023-03-01T20:10:03.496Z,177.88
2023-03-01T20:12:31.224Z,169.65
2023-03-01T20:14:58.985Z,177.85
2023-03-01T20:17:26.484Z,183.18
2023-03-01T20:19:54.138Z,170.43
2023-03-01T20:22:21.636Z,162.93
2023-03-01T20:24:49.098Z,159.55
2023-03-01T20:27:16.827Z,146.32
2023-03-01T20:29:48.527Z,139.13
2023-03-01T20:32:16.078Z,141.57
2023-03-01T20:34:43.656Z,145.20
2023-03-01T20:37:11.302Z,143.80
2023-03-01T20:39:38.815Z,152.77
2023-03-01T20:42:06.297Z,152.82
2023-03-01T20:44:34.417Z,149.07
2023-03-01T20:47:02.092Z,148.40
2023-03-01T20:49:29.634Z,152.93
2023-03-01T20:51:57.239Z,170.35
2023-03-01T20:54:24.706Z,186.40
2023-03-01T20:56:52.192Z,187.13
2023-03-01T20:59:19.617Z,177.90
2023-03-01T21:01:47.260Z,188.27
2023-03-01T21:04:14.965Z,215.55
2023-03-01T21:06:43.142Z,213.40
2023-03-01T21:09:10.673Z,216.10
2023-03-01T21:11:41.408Z,209.68
2023-03-01T21:14:09.931Z,230.18
2023-03-01T21:16:37.593Z,235.73
2023-03-01T21:19:05.049Z,203.50
2023-03-01T21:21:32.582Z,183.98
2023-03-01T21:24:00.039Z,180.95
2023-03-01T21:26:27.835Z,162.25
2023-03-01T21:28:56.601Z,150.48
2023-03-01T21:31:25.121Z,145.97
2023-03-01T21:33:53.338Z,136.15
2023-03-01T21:36:20.982Z,137.52
2023-03-01T21:38:48.744Z,152.13
2023-03-01T21:41:23.173Z,169.68
2023-03-01T21:43:51.157Z,166.73
2023-03-01T21:46:22.431Z,164.32
2023-03-01T21:48:50.096Z,158.43
2023-03-01T21:51:18.030Z,149.50
2023-03-01T21:53:45.684Z,170.60
2023-03-01T21:56:17.123Z,177.38
2023-03-01T21:58:44.593Z,168.02
2023-03-01T22:01:12.848Z,172.27
2023-03-01T22:03:46.047Z,174.10
2023-03-01T22:06:21.241Z,174.88
2023-03-01T22:08:49.193Z,179.77
2023-03-01T22:11:18.194Z,184.68
2023-03-01T22:13:49.661Z,199.90
2023-03-01T22:16:17.538Z,202.68
2023-03-01T22:18:45.027Z,200.73
2023-03-01T22:21:12.438Z,191.52
2023-03-01T22:23:40.119Z,193.98
2023-03-01T22:26:07.844Z,189.85
2023-03-01T22:28:35.367Z,201.95
2023-03-01T22:31:06.028Z,198.38
2023-03-01T22:33:33.545Z,198.55
2023-03-01T22:36:01.131Z,208.48
2023-03-01T22:38:28.549Z,208.80
2023-03-01T22:40:59.732Z,212.43
2023-03-01T22:43:27.438Z,204.85
2023-03-01T22:45:55.009Z,200.77
2023-03-01T22:48:22.479Z,192.45
2023-03-01T22:50:50.151Z,183.95
2023-03-01T22:53:19.252Z,171.93
2023-03-01T22:55:46.655Z,182.63
2023-03-01T22:58:14.174Z,203.00
2023-03-01T23:00:41.579Z,195.30
2023-03-01T23:03:09.234Z,184.88
2023-03-01T23:05:36.756Z,176.45
2023-03-01T23:08:04.247Z,170.52
2023-03-01T23:10:31.670Z,166.05
2023-03-01T23:12:59.103Z,166.32
2023-03-01T23:15:26.541Z,235.13
2023-03-01T23:17:53.964Z,218.15
2023-03-01T23:20:21.609Z,203.70
2023-03-01T23:22:49.134Z,187.45
2023-03-01T23:25:16.712Z,174.60
2023-03-01T23:27:44.210Z,168.45
2023-03-01T23:30:12.056Z,166.30
2023-03-01T23:32:40.904Z,177.63
2023-03-01T23:35:11.546Z,188.98
2023-03-01T23:37:39.054Z,189.95
2023-03-01T23:40:06.837Z,181.27
2023-03-01T23:42:34.697Z,177.40
2023-03-01T23:45:02.276Z,175.80
2023-03-01T23:47:29.814Z,164.85
2023-03-01T23:49:57.480Z,163.73
2023-03-01T23:52:27.306Z,167.93
2023-03-01T23:54:54.893Z,158.38
2023-03-01T23:57:22.483Z,158.00
2023-03-01T23:59:50.907Z,153.43
